Time;durP1;ratioP1;P1;durP2;ratioP2;P2;SDS_P1;SDS_P2;PMS_P1;PMS_P2;Temp;Humidity;BMP_temperature;BMP_pressure;BME280_temperature;BME280_humidity;BME280_pressure;Samples;Min_cycle;Max_cycle;Signal;HPM_P1;HPM_P2
2023/11/18 00:00:55;;;;;;;2.95;2.25;;;5.40;99.90;;;;;;5117421;27;20600;-73
2023/11/18 00:03:22;;;;;;;2.90;2.70;;;5.30;99.90;;;;;;5110950;27;20269;-73
2023/11/18 00:05:49;;;;;;;2.78;2.38;;;5.30;99.90;;;;;;5109073;27;20571;-73
2023/11/18 00:08:15;;;;;;;5.65;2.95;;;5.30;99.90;;;;;;5114412;27;20193;-73
2023/11/18 00:10:44;;;;;;;3.03;2.42;;;5.30;99.90;;;;;;5147979;27;20193;-73
2023/11/18 00:13:10;;;;;;;3.15;2.85;;;5.40;99.90;;;;;;5144816;27;20224;-73
2023/11/18 00:15:37;;;;;;;4.32;2.20;;;5.40;99.90;;;;;;5135584;27;20289;-73
2023/11/18 00:18:04;;;;;;;2.65;2.45;;;5.40;99.90;;;;;;5136112;27;20601;-73
2023/11/18 00:20:32;;;;;;;3.28;2.50;;;5.40;99.90;;;;;;5141922;27;20208;-73
2023/11/18 00:22:59;;;;;;;2.22;2.03;;;5.40;99.90;;;;;;5128803;27;20289;-73
2023/11/18 00:25:26;;;;;;;2.38;2.17;;;5.30;99.90;;;;;;5133152;27;20566;-73
2023/11/18 00:27:54;;;;;;;2.17;1.67;;;5.30;99.90;;;;;;5132267;27;20208;-73
2023/11/18 00:30:21;;;;;;;2.35;2.15;;;5.30;99.90;;;;;;5132436;27;20583;-73
2023/11/18 00:32:49;;;;;;;2.40;2.20;;;5.30;99.90;;;;;;5128246;27;20185;-73
2023/11/18 00:35:16;;;;;;;2.28;2.08;;;5.30;99.90;;;;;;5122970;27;20242;-73
2023/11/18 00:37:45;;;;;;;2.10;1.92;;;5.30;99.90;;;;;;5121868;27;20215;-73
2023/11/18 00:40:12;;;;;;;2.78;1.98;;;5.20;99.90;;;;;;5128419;27;20248;-73
2023/11/18 00:42:39;;;;;;;2.50;2.30;;;5.30;99.90;;;;;;5128201;27;20622;-73
2023/11/18 00:45:08;;;;;;;2.53;2.15;;;5.30;99.90;;;;;;5124491;27;20201;-73
2023/11/18 00:47:35;;;;;;;2.00;1.80;;;5.30;99.90;;;;;;5117951;27;20575;-73
2023/11/18 00:50:02;;;;;;;2.30;2.10;;;5.30;99.90;;;;;;5121756;27;20668;-73
2023/11/18 00:52:29;;;;;;;2.72;2.50;;;5.30;99.90;;;;;;5118061;27;20202;-74
2023/11/18 00:54:56;;;;;;;3.15;2.85;;;5.30;99.90;;;;;;5124095;27;20636;-73
2023/11/18 00:57:23;;;;;;;4.13;3.15;;;5.30;99.90;;;;;;5119830;27;20707;-73
2023/11/18 00:59:50;;;;;;;3.03;2.80;;;5.40;99.90;;;;;;5114600;27;20207;-73
2023/11/18 01:02:18;;;;;;;2.78;2.40;;;5.40;99.90;;;;;;5111499;27;20198;-73
2023/11/18 01:04:46;;;;;;;3.38;3.10;;;5.40;99.90;;;;;;5108513;27;20212;-74
2023/11/18 01:07:17;;;;;;;3.25;2.65;;;5.40;99.90;;;;;;5115057;27;20686;-73
2023/11/18 01:09:46;;;;;;;3.38;2.58;;;5.40;99.90;;;;;;5122707;27;20524;-73
2023/11/18 01:12:13;;;;;;;2.42;2.22;;;5.50;99.90;;;;;;5145814;27;20196;-73
2023/11/18 01:14:41;;;;;;;1.85;1.75;;;5.50;99.90;;;;;;5133725;27;20226;-73
2023/11/18 01:17:13;;;;;;;1.88;1.70;;;5.50;99.90;;;;;;5123923;27;20202;-73
2023/11/18 01:19:42;;;;;;;3.38;2.17;;;5.50;99.90;;;;;;5135770;27;20287;-73
2023/11/18 01:22:11;;;;;;;2.63;2.20;;;5.50;99.90;;;;;;5131055;27;20205;-73
2023/11/18 01:24:38;;;;;;;4.78;2.63;;;5.50;99.90;;;;;;5134112;27;20704;-73
2023/11/18 01:27:07;;;;;;;2.70;2.50;;;5.60;99.90;;;;;;5127819;27;20230;-73
2023/11/18 01:29:34;;;;;;;2.15;1.95;;;5.50;99.90;;;;;;5118107;27;20339;-73
2023/11/18 01:32:05;;;;;;;3.90;2.35;;;5.50;99.90;;;;;;5119135;27;20202;-73
2023/11/18 01:34:34;;;;;;;3.22;2.53;;;5.40;99.90;;;;;;5128718;27;20229;-73
2023/11/18 01:37:02;;;;;;;2.30;1.77;;;5.40;99.90;;;;;;5123482;27;20213;-73
2023/11/18 01:39:29;;;;;;;1.70;1.60;;;5.40;99.90;;;;;;5121911;27;20280;-73
2023/11/18 01:41:59;;;;;;;1.70;1.60;;;5.50;99.90;;;;;;5124135;27;20492;-73
2023/11/18 01:44:28;;;;;;;2.90;2.45;;;5.40;99.90;;;;;;5122771;27;20243;-73
2023/11/18 01:46:55;;;;;;;1.50;1.40;;;5.50;99.90;;;;;;5117278;27;20641;-73
2023/11/18 01:49:23;;;;;;;2.70;2.30;;;5.50;99.90;;;;;;5114164;27;20293;-73
2023/11/18 01:51:52;;;;;;;1.85;1.58;;;5.40;99.90;;;;;;5121611;27;20220;-73
2023/11/18 01:54:23;;;;;;;2.40;1.63;;;5.40;99.90;;;;;;5117063;27;20743;-73
2023/11/18 01:56:51;;;;;;;1.90;1.77;;;5.50;99.90;;;;;;5113303;27;20209;-73
2023/11/18 01:59:19;;;;;;;2.05;1.58;;;5.50;99.90;;;;;;5112218;27;20202;-73
2023/11/18 02:01:49;;;;;;;2.80;1.55;;;5.60;99.90;;;;;;5111343;27;20643;-73
2023/11/18 02:04:19;;;;;;;2.13;1.60;;;5.50;99.90;;;;;;5116682;27;20251;-73
2023/11/18 02:06:47;;;;;;;2.65;2.45;;;5.50;99.90;;;;;;5108296;27;20212;-73
2023/11/18 02:09:17;;;;;;;2.08;1.88;;;5.50;99.90;;;;;;5105374;27;20572;-73
2023/11/18 02:11:54;;;;;;;3.25;2.30;;;5.50;99.90;;;;;;5121138;27;20558;-73
2023/11/18 02:14:23;;;;;;;2.15;1.65;;;5.50;99.90;;;;;;5129713;27;20227;-73
2023/11/18 02:16:54;;;;;;;2.65;2.10;;;5.40;99.90;;;;;;5121074;27;20198;-73
2023/11/18 02:19:22;;;;;;;1.83;1.50;;;5.40;99.90;;;;;;5136357;27;20192;-73
2023/11/18 02:21:54;;;;;;;2.47;2.28;;;5.40;99.90;;;;;;5130329;27;20560;-73
2023/11/18 02:24:29;;;;;;;1.58;1.40;;;5.50;99.90;;;;;;5130183;27;20202;-73
2023/11/18 02:27:00;;;;;;;1.88;1.77;;;5.60;99.90;;;;;;5135334;27;20208;-73
2023/11/18 02:29:35;;;;;;;2.17;1.98;;;5.50;99.90;;;;;;5126002;27;20467;-73
2023/11/18 02:32:12;;;;;;;2.22;1.67;;;5.60;99.90;;;;;;5125207;27;20288;-73
2023/11/18 02:34:47;;;;;;;1.90;1.73;;;5.50;99.90;;;;;;5127754;27;20212;-74
2023/11/18 02:37:16;;;;;;;1.15;1.05;;;5.50;99.90;;;;;;5115848;27;20473;-73
2023/11/18 02:39:50;;;;;;;1.38;1.27;;;5.40;99.90;;;;;;5122431;27;20220;-73
2023/11/18 02:42:22;;;;;;;2.10;1.90;;;5.40;99.90;;;;;;5122676;27;20202;-74
2023/11/18 02:44:58;;;;;;;1.75;1.40;;;5.50;99.90;;;;;;5122584;27;20200;-74
2023/11/18 02:47:27;;;;;;;2.50;1.85;;;5.40;99.90;;;;;;5115033;27;20237;-72
2023/11/18 02:50:05;;;;;;;1.80;1.70;;;5.40;99.90;;;;;;5118762;27;20196;-73
2023/11/18 02:52:32;;;;;;;1.63;1.52;;;5.50;99.90;;;;;;5119829;27;20911;-73
2023/11/18 02:54:58;;;;;;;1.75;1.30;;;5.40;99.90;;;;;;5120407;27;20235;-73
2023/11/18 02:57:27;;;;;;;1.77;1.67;;;5.30;99.90;;;;;;5119766;27;20614;-73
2023/11/18 02:59:54;;;;;;;2.03;1.83;;;5.30;99.90;;;;;;5122516;27;20202;-73
2023/11/18 03:02:21;;;;;;;3.75;2.15;;;5.30;99.90;;;;;;5115138;27;20726;-73
2023/11/18 03:04:47;;;;;;;1.35;1.17;;;5.20;99.90;;;;;;5115283;27;20736;-73
2023/11/18 03:07:14;;;;;;;1.42;1.33;;;5.10;99.90;;;;;;5111245;27;20198;-72
2023/11/18 03:09:41;;;;;;;3.60;1.50;;;5.10;99.90;;;;;;5109116;27;20289;-72
2023/11/18 03:12:08;;;;;;;1.60;1.50;;;5.10;99.90;;;;;;5141193;27;20670;-73
2023/11/18 03:14:37;;;;;;;2.00;1.52;;;4.90;99.90;;;;;;5131476;27;20197;-72
2023/11/18 03:17:06;;;;;;;3.53;2.05;;;4.90;99.90;;;;;;5139914;27;20279;-73
2023/11/18 03:19:34;;;;;;;1.98;1.45;;;4.70;99.90;;;;;;5131793;27;20197;-73
2023/11/18 03:22:02;;;;;;;1.92;1.23;;;4.70;99.90;;;;;;5140338;27;20212;-73
2023/11/18 03:24:30;;;;;;;1.70;1.60;;;4.70;99.90;;;;;;5131346;27;20192;-73
2023/11/18 03:26:58;;;;;;;1.58;1.38;;;4.60;99.90;;;;;;5139611;27;20253;-73
2023/11/18 03:29:26;;;;;;;1.70;1.60;;;4.50;99.90;;;;;;5128442;27;20202;-73
2023/11/18 03:31:55;;;;;;;2.10;1.90;;;4.40;99.90;;;;;;5128500;27;20200;-73
2023/11/18 03:34:23;;;;;;;1.77;1.67;;;4.40;99.90;;;;;;5133642;27;20194;-73
2023/11/18 03:36:51;;;;;;;2.55;1.73;;;4.30;99.90;;;;;;5135189;27;20224;-73
2023/11/18 03:39:18;;;;;;;1.80;1.35;;;4.20;99.90;;;;;;5122793;27;20674;-73
2023/11/18 03:41:46;;;;;;;2.30;1.73;;;4.30;99.90;;;;;;5120125;27;20978;-73
2023/11/18 03:44:13;;;;;;;2.90;2.28;;;4.30;99.90;;;;;;5128440;27;20255;-74
2023/11/18 03:46:40;;;;;;;1.67;1.58;;;4.30;99.90;;;;;;5122945;27;20244;-73
2023/11/18 03:49:09;;;;;;;1.33;1.23;;;4.40;99.90;;;;;;5119789;27;20579;-73
2023/11/18 03:51:36;;;;;;;1.60;1.50;;;4.40;99.90;;;;;;5131647;27;20201;-74
2023/11/18 03:54:03;;;;;;;1.90;1.67;;;4.40;99.90;;;;;;5137641;27;20198;-73
2023/11/18 03:56:30;;;;;;;1.13;1.13;;;4.40;99.90;;;;;;5136558;27;20227;-73
2023/11/18 03:58:57;;;;;;;1.38;1.27;;;4.40;99.90;;;;;;5134969;27;20201;-74
2023/11/18 04:01:27;;;;;;;1.10;1.10;;;4.30;99.90;;;;;;5137036;27;20203;-73
2023/11/18 04:03:54;;;;;;;1.83;1.55;;;4.20;99.90;;;;;;5135298;27;20201;-73
2023/11/18 04:06:24;;;;;;;1.52;1.42;;;4.20;99.90;;;;;;5129229;27;20198;-73
2023/11/18 04:08:52;;;;;;;1.50;1.38;;;4.20;99.90;;;;;;5120932;27;20623;-73
2023/11/18 04:11:19;;;;;;;1.95;1.45;;;4.20;99.90;;;;;;5118222;27;20202;-73
2023/11/18 04:13:45;;;;;;;1.50;1.40;;;4.40;99.90;;;;;;5122686;27;20623;-73
2023/11/18 04:16:13;;;;;;;3.03;2.75;;;4.40;99.90;;;;;;5115121;27;20308;-73
2023/11/18 04:18:40;;;;;;;2.17;1.92;;;4.40;99.90;;;;;;5116941;27;20507;-74
2023/11/18 04:21:08;;;;;;;1.45;1.35;;;4.30;99.90;;;;;;5114866;27;20196;-73
2023/11/18 04:23:37;;;;;;;2.10;1.77;;;4.40;99.90;;;;;;5112736;27;20253;-73
2023/11/18 04:26:05;;;;;;;1.33;1.30;;;4.30;99.90;;;;;;5111970;27;20202;-73
2023/11/18 04:28:31;;;;;;;1.70;1.60;;;4.30;99.90;;;;;;5132576;27;20554;-73
2023/11/18 04:30:59;;;;;;;2.35;1.60;;;4.30;99.90;;;;;;5134520;27;20202;-73
2023/11/18 04:33:26;;;;;;;1.75;1.48;;;4.20;99.90;;;;;;5133576;27;20232;-73
2023/11/18 04:35:52;;;;;;;1.55;1.40;;;4.30;99.90;;;;;;5132875;27;20750;-73
2023/11/18 04:38:19;;;;;;;2.03;1.85;;;4.30;99.90;;;;;;5125095;27;20205;-73
2023/11/18 04:40:48;;;;;;;1.50;1.40;;;4.30;99.90;;;;;;5130030;27;20225;-74
2023/11/18 04:43:14;;;;;;;2.28;2.08;;;4.30;99.90;;;;;;5128123;27;20707;-73
2023/11/18 04:45:42;;;;;;;1.77;1.67;;;4.40;99.90;;;;;;5129568;27;20210;-73
2023/11/18 04:48:09;;;;;;;1.67;1.30;;;4.30;99.90;;;;;;5129074;27;20213;-74
2023/11/18 04:50:36;;;;;;;1.92;1.70;;;4.40;99.90;;;;;;5133231;27;20212;-73
2023/11/18 04:53:04;;;;;;;1.77;1.45;;;4.40;99.90;;;;;;5128323;27;20213;-74
2023/11/18 04:55:31;;;;;;;1.48;1.10;;;4.40;99.90;;;;;;5125898;27;20236;-73
2023/11/18 04:57:59;;;;;;;1.63;1.52;;;4.60;99.90;;;;;;5127864;27;20197;-73
2023/11/18 05:00:26;;;;;;;3.30;1.75;;;4.50;99.90;;;;;;5120962;27;20194;-73
2023/11/18 05:02:52;;;;;;;1.55;1.45;;;4.50;99.90;;;;;;5127687;27;20201;-73
2023/11/18 05:05:19;;;;;;;1.95;1.35;;;4.60;99.90;;;;;;5117204;27;20202;-73
2023/11/18 05:07:46;;;;;;;1.60;1.13;;;4.60;99.90;;;;;;5119416;27;20300;-74
2023/11/18 05:10:13;;;;;;;1.45;1.35;;;4.60;99.90;;;;;;5118334;27;20201;-73
2023/11/18 05:12:40;;;;;;;2.08;1.75;;;4.60;99.90;;;;;;5121166;27;20871;-73
2023/11/18 05:15:09;;;;;;;2.30;2.10;;;4.60;99.90;;;;;;5115475;27;20488;-73
2023/11/18 05:17:36;;;;;;;2.67;1.60;;;4.60;99.90;;;;;;5113932;27;20206;-73
2023/11/18 05:20:03;;;;;;;1.60;1.50;;;4.60;99.90;;;;;;5116763;27;20674;-73
2023/11/18 05:22:30;;;;;;;2.33;1.75;;;4.60;99.90;;;;;;5113291;27;20200;-73
2023/11/18 05:24:57;;;;;;;3.17;1.80;;;4.60;99.90;;;;;;5108808;27;20485;-73
2023/11/18 05:27:25;;;;;;;2.10;1.90;;;4.50;99.90;;;;;;5107878;27;20580;-73
2023/11/18 05:29:54;;;;;;;3.00;2.60;;;4.60;99.90;;;;;;5129008;27;20224;-73
2023/11/18 05:32:23;;;;;;;4.00;2.05;;;4.70;99.90;;;;;;5129596;27;20203;-73
2023/11/18 05:34:50;;;;;;;2.47;2.28;;;4.70;99.90;;;;;;5130016;27;20209;-73
2023/11/18 05:37:18;;;;;;;2.30;2.00;;;4.60;99.90;;;;;;5137593;27;20224;-73
2023/11/18 05:39:45;;;;;;;2.50;2.35;;;4.70;99.90;;;;;;5130737;27;20564;-73
2023/11/18 05:42:12;;;;;;;3.50;2.85;;;4.80;99.90;;;;;;5132647;27;20233;-73
2023/11/18 05:44:39;;;;;;;2.30;2.10;;;4.70;99.90;;;;;;5126635;27;20203;-73
2023/11/18 05:47:06;;;;;;;2.50;2.30;;;4.70;99.90;;;;;;5128206;27;20208;-73
2023/11/18 05:49:35;;;;;;;1.55;1.45;;;4.70;99.90;;;;;;5129247;27;20194;-73
2023/11/18 05:52:01;;;;;;;2.38;1.83;;;4.70;99.90;;;;;;5130789;27;20199;-72
2023/11/18 05:54:28;;;;;;;2.10;1.80;;;4.60;99.90;;;;;;5128528;27;20206;-73
2023/11/18 05:56:55;;;;;;;1.75;1.52;;;4.60;99.90;;;;;;5130202;27;20220;-73
2023/11/18 05:59:23;;;;;;;2.55;2.10;;;4.60;99.90;;;;;;5119652;27;20655;-73
2023/11/18 06:01:50;;;;;;;1.92;1.60;;;4.60;99.90;;;;;;5120482;27;20207;-74
2023/11/18 06:04:17;;;;;;;3.80;2.30;;;4.50;99.90;;;;;;5119798;27;20549;-74
2023/11/18 06:06:47;;;;;;;2.15;1.95;;;4.50;99.90;;;;;;5120877;27;20648;-74
2023/11/18 06:09:20;;;;;;;2.38;2.15;;;4.50;99.90;;;;;;5117563;27;20198;-73
2023/11/18 06:11:49;;;;;;;2.92;2.58;;;4.50;99.90;;;;;;5114414;27;20217;-74
2023/11/18 06:14:16;;;;;;;1.90;1.60;;;4.50;99.90;;;;;;5115250;27;20198;-73
2023/11/18 06:16:43;;;;;;;2.13;1.85;;;4.40;99.90;;;;;;5112482;27;20225;-74
2023/11/18 06:19:10;;;;;;;2.65;2.33;;;4.40;99.90;;;;;;5113106;27;20654;-73
2023/11/18 06:21:37;;;;;;;2.60;2.40;;;4.40;99.90;;;;;;5109807;27;20206;-74
2023/11/18 06:24:06;;;;;;;2.10;2.00;;;4.30;99.90;;;;;;5118174;27;20201;-73
2023/11/18 06:26:35;;;;;;;2.72;2.45;;;4.30;99.90;;;;;;5111364;27;20218;-74
2023/11/18 06:29:03;;;;;;;3.35;2.10;;;4.30;99.90;;;;;;5136141;27;20249;-73
2023/11/18 06:31:31;;;;;;;2.03;1.85;;;4.20;99.90;;;;;;5128116;27;20209;-73
2023/11/18 06:33:57;;;;;;;1.67;1.58;;;4.30;99.90;;;;;;5143712;27;20278;-73
2023/11/18 06:36:26;;;;;;;3.45;3.03;;;4.20;99.90;;;;;;5145605;27;20590;-73
2023/11/18 06:38:54;;;;;;;2.10;2.00;;;4.20;99.90;;;;;;5124567;27;20201;-73
2023/11/18 06:41:25;;;;;;;3.10;2.80;;;4.20;99.90;;;;;;5131543;27;20194;-73
2023/11/18 06:43:56;;;;;;;3.25;2.92;;;4.20;99.90;;;;;;5143078;27;20207;-74
2023/11/18 06:46:25;;;;;;;3.42;3.13;;;4.10;99.90;;;;;;5142757;27;20204;-74
2023/11/18 06:48:54;;;;;;;3.55;3.08;;;4.10;99.90;;;;;;5137948;27;20196;-73
2023/11/18 06:51:23;;;;;;;2.78;2.42;;;4.20;99.90;;;;;;5130380;27;20560;-72
2023/11/18 06:53:50;;;;;;;4.20;2.95;;;4.20;99.90;;;;;;5143518;27;20734;-72
2023/11/18 06:56:17;;;;;;;2.90;2.60;;;4.20;99.90;;;;;;5139090;27;20243;-73
2023/11/18 06:58:45;;;;;;;2.75;2.38;;;4.30;99.90;;;;;;5138319;27;20671;-72
2023/11/18 07:01:14;;;;;;;3.55;3.25;;;4.20;99.90;;;;;;5133637;27;20210;-72
2023/11/18 07:03:42;;;;;;;4.05;3.03;;;4.10;99.90;;;;;;5139401;27;20200;-72
2023/11/18 07:06:09;;;;;;;4.50;4.18;;;4.10;99.90;;;;;;5134972;27;20185;-74
2023/11/18 07:08:36;;;;;;;4.30;3.00;;;4.30;99.90;;;;;;5135236;27;20755;-72
2023/11/18 07:11:03;;;;;;;2.35;2.15;;;4.30;99.90;;;;;;5141643;27;20191;-72
2023/11/18 07:13:30;;;;;;;4.93;3.78;;;4.30;99.90;;;;;;5137981;27;20205;-72
2023/11/18 07:15:59;;;;;;;4.43;3.10;;;4.30;99.90;;;;;;5133232;27;20246;-72
2023/11/18 07:18:25;;;;;;;3.97;3.58;;;4.30;99.90;;;;;;5134527;27;20194;-72
2023/11/18 07:20:52;;;;;;;3.17;2.85;;;4.40;99.90;;;;;;5132298;27;20189;-72
2023/11/18 07:23:19;;;;;;;4.95;4.03;;;4.50;99.90;;;;;;5137035;27;20560;-72
2023/11/18 07:25:46;;;;;;;3.03;2.72;;;4.50;99.90;;;;;;5144008;27;20200;-72
2023/11/18 07:28:15;;;;;;;4.50;3.28;;;4.60;99.90;;;;;;5131346;27;20202;-72
2023/11/18 07:30:42;;;;;;;6.10;3.05;;;4.70;99.90;;;;;;5134065;27;20205;-72
2023/11/18 07:33:10;;;;;;;2.28;1.90;;;4.70;99.90;;;;;;5144313;27;20562;-72
2023/11/18 07:35:37;;;;;;;2.95;2.65;;;4.70;99.90;;;;;;5138239;27;20264;-72
2023/11/18 07:38:07;;;;;;;3.53;2.05;;;4.70;99.90;;;;;;5134083;27;20225;-72
2023/11/18 07:40:33;;;;;;;4.10;3.30;;;4.90;99.90;;;;;;5136376;27;20193;-72
2023/11/18 07:43:01;;;;;;;2.63;2.15;;;4.90;99.90;;;;;;5137320;27;20202;-71
2023/11/18 07:45:28;;;;;;;2.55;2.35;;;4.90;99.90;;;;;;5131931;27;20201;-72
2023/11/18 07:47:55;;;;;;;3.38;2.85;;;5.00;99.90;;;;;;5138264;27;20200;-72
2023/11/18 07:50:23;;;;;;;5.38;2.92;;;5.00;99.90;;;;;;5131221;27;20189;-72
2023/11/18 07:52:51;;;;;;;3.85;3.08;;;5.10;99.90;;;;;;5137807;27;20197;-74
2023/11/18 07:55:18;;;;;;;2.75;2.55;;;5.10;99.90;;;;;;5137800;27;20217;-75
2023/11/18 07:57:45;;;;;;;4.13;3.80;;;5.10;99.90;;;;;;5140397;27;20300;-73
2023/11/18 08:00:15;;;;;;;2.95;2.75;;;5.20;99.90;;;;;;5139200;27;20507;-74
2023/11/18 08:02:41;;;;;;;4.22;2.30;;;5.20;99.90;;;;;;5136350;27;20198;-76
2023/11/18 08:05:08;;;;;;;4.07;3.45;;;5.10;99.90;;;;;;5140428;27;20208;-75
2023/11/18 08:07:38;;;;;;;3.30;2.95;;;5.10;99.90;;;;;;5135413;27;20192;-74
2023/11/18 08:10:05;;;;;;;4.55;2.85;;;5.20;99.90;;;;;;5137811;27;20734;-75
2023/11/18 08:12:32;;;;;;;2.65;2.00;;;5.30;99.90;;;;;;5133827;27;20284;-75
2023/11/18 08:15:00;;;;;;;3.35;2.78;;;5.30;99.90;;;;;;5140580;27;20282;-75
2023/11/18 08:17:27;;;;;;;5.55;3.10;;;5.50;99.90;;;;;;5138286;27;20217;-75
2023/11/18 08:19:55;;;;;;;5.25;3.80;;;5.50;99.90;;;;;;5139672;27;20733;-75
2023/11/18 08:22:23;;;;;;;8.15;3.78;;;5.50;99.90;;;;;;5129807;27;20354;-77
2023/11/18 08:24:51;;;;;;;4.47;3.22;;;5.50;99.90;;;;;;5136025;27;20204;-76
2023/11/18 08:27:19;;;;;;;4.78;2.72;;;5.50;99.90;;;;;;5139922;27;20200;-76
2023/11/18 08:29:48;;;;;;;2.90;1.67;;;5.60;99.90;;;;;;5136734;27;20217;-77
2023/11/18 08:32:15;;;;;;;4.40;2.58;;;5.60;99.90;;;;;;5139830;27;20201;-76
2023/11/18 08:34:42;;;;;;;3.35;2.45;;;5.70;99.90;;;;;;5140346;27;20195;-75
2023/11/18 08:37:09;;;;;;;3.03;2.53;;;5.70;99.90;;;;;;5139796;27;20269;-75
2023/11/18 08:39:36;;;;;;;4.07;2.55;;;5.80;99.90;;;;;;5132148;27;20203;-74
2023/11/18 08:42:07;;;;;;;2.55;2.28;;;5.80;99.90;;;;;;5134060;27;20532;-74
2023/11/18 08:44:34;;;;;;;3.17;2.17;;;5.80;99.90;;;;;;5128742;27;20205;-74
2023/11/18 08:47:05;;;;;;;1.75;1.65;;;5.80;99.90;;;;;;5136134;27;20207;-74
2023/11/18 08:49:33;;;;;;;1.80;1.70;;;5.70;99.90;;;;;;5133450;27;20197;-72
2023/11/18 08:52:01;;;;;;;1.40;1.30;;;5.80;99.90;;;;;;5139823;27;20197;-72
2023/11/18 08:54:36;;;;;;;1.80;1.70;;;5.80;99.90;;;;;;5137814;27;20211;-72
2023/11/18 08:57:19;;;;;;;1.92;1.65;;;5.90;99.90;;;;;;5130698;27;20247;-73
2023/11/18 08:59:46;;;;;;;3.03;1.70;;;6.00;99.90;;;;;;5143063;27;20260;-73
2023/11/18 09:02:15;;;;;;;1.80;1.70;;;6.00;99.90;;;;;;5136782;27;20196;-74
2023/11/18 09:04:43;;;;;;;2.38;1.40;;;6.00;99.90;;;;;;5138178;27;20276;-75
2023/11/18 09:07:10;;;;;;;1.92;1.60;;;5.90;99.90;;;;;;5140416;27;20650;-73
2023/11/18 09:09:39;;;;;;;2.60;2.40;;;5.90;99.90;;;;;;5126387;27;20740;-72
2023/11/18 09:12:09;;;;;;;1.60;1.50;;;5.90;99.90;;;;;;5132594;27;20196;-72
2023/11/18 09:14:36;;;;;;;1.20;1.10;;;5.90;99.90;;;;;;5139935;27;20192;-75
2023/11/18 09:17:02;;;;;;;1.45;1.33;;;6.00;99.90;;;;;;5136297;27;20227;-75
2023/11/18 09:19:29;;;;;;;1.25;1.15;;;6.10;99.90;;;;;;5133710;27;20188;-75
2023/11/18 09:21:56;;;;;;;1.45;1.35;;;6.20;99.90;;;;;;5138273;27;20326;-74
2023/11/18 09:24:24;;;;;;;1.40;1.30;;;6.20;99.90;;;;;;5136208;27;20200;-73
2023/11/18 09:26:52;;;;;;;1.50;1.40;;;6.10;99.90;;;;;;5135937;27;20202;-74
2023/11/18 09:29:23;;;;;;;1.50;1.40;;;5.90;99.90;;;;;;5127669;27;20220;-73
2023/11/18 09:31:52;;;;;;;1.27;1.17;;;6.10;99.90;;;;;;5136662;27;20193;-74
2023/11/18 09:34:26;;;;;;;1.40;1.30;;;6.00;99.90;;;;;;5139008;27;20249;-74
2023/11/18 09:36:53;;;;;;;1.25;1.15;;;6.10;99.90;;;;;;5139139;27;20699;-74
2023/11/18 09:39:37;;;;;;;1.85;1.65;;;6.20;99.90;;;;;;5130829;27;20197;-73
2023/11/18 09:42:08;;;;;;;1.80;1.70;;;6.40;99.90;;;;;;5139487;27;20224;-73
2023/11/18 09:44:37;;;;;;;2.08;1.65;;;6.50;99.90;;;;;;5139390;27;20524;-74
2023/11/18 09:47:09;;;;;;;2.20;2.00;;;6.60;99.90;;;;;;5139701;27;20207;-74
2023/11/18 09:49:45;;;;;;;1.33;1.23;;;6.70;99.90;;;;;;5125605;27;20192;-74
2023/11/18 09:52:18;;;;;;;3.80;1.47;;;6.80;99.90;;;;;;5139437;27;20196;-75
2023/11/18 09:54:52;;;;;;;1.30;1.17;;;6.90;99.90;;;;;;5128166;27;20960;-73
2023/11/18 09:57:26;;;;;;;2.03;1.50;;;6.80;99.90;;;;;;5135576;27;20665;-76
2023/11/18 10:00:10;;;;;;;1.80;1.70;;;6.90;99.90;;;;;;5127424;27;20833;-73
2023/11/18 10:02:40;;;;;;;2.03;1.60;;;7.00;99.90;;;;;;5137443;27;20216;-76
2023/11/18 10:05:12;;;;;;;1.80;1.37;;;7.10;99.90;;;;;;5139272;27;20614;-76
2023/11/18 10:07:40;;;;;;;1.20;1.20;;;7.10;99.90;;;;;;5138360;27;20629;-74
2023/11/18 10:10:14;;;;;;;1.80;1.70;;;7.10;99.90;;;;;;5134662;27;20725;-74
2023/11/18 10:12:41;;;;;;;1.57;0.93;;;7.20;99.90;;;;;;5135367;27;20697;-77
2023/11/18 10:15:14;;;;;;;1.50;1.40;;;7.20;99.90;;;;;;5139017;27;20614;-77
2023/11/18 10:17:54;;;;;;;1.63;1.53;;;7.30;99.90;;;;;;5126632;27;20661;-75
2023/11/18 10:20:25;;;;;;;1.20;1.10;;;7.40;99.90;;;;;;5132356;27;21053;-77
2023/11/18 10:23:07;;;;;;;1.00;0.90;;;7.50;99.90;;;;;;5122851;27;20971;-77
2023/11/18 10:25:35;;;;;;;1.67;1.50;;;7.60;99.90;;;;;;5135335;27;20676;-76
2023/11/18 10:28:03;;;;;;;1.20;1.10;;;7.50;99.90;;;;;;5130810;27;20620;-76
2023/11/18 10:30:33;;;;;;;1.20;1.10;;;7.60;99.90;;;;;;5125901;27;21205;-75
2023/11/18 10:33:05;;;;;;;0.90;0.90;;;7.60;99.90;;;;;;5129016;27;20623;-75
2023/11/18 10:35:33;;;;;;;1.90;1.20;;;7.50;99.90;;;;;;5133398;27;20741;-73
2023/11/18 10:38:04;;;;;;;1.23;1.13;;;7.60;99.90;;;;;;5132788;27;20676;-74
2023/11/18 10:40:34;;;;;;;1.17;1.10;;;7.70;99.90;;;;;;5127384;27;21211;-74
2023/11/18 10:43:05;;;;;;;1.90;1.37;;;7.60;99.90;;;;;;5135004;27;20626;-74
2023/11/18 10:45:33;;;;;;;1.30;1.10;;;7.60;99.90;;;;;;5125949;27;20623;-75
2023/11/18 10:48:01;;;;;;;1.30;1.00;;;7.60;99.90;;;;;;5133141;27;21143;-73
2023/11/18 10:50:31;;;;;;;2.70;1.60;;;7.60;99.90;;;;;;5136743;27;20627;-73
2023/11/18 10:53:00;;;;;;;3.50;1.60;;;7.70;99.90;;;;;;5138083;27;20626;-73
2023/11/18 10:55:36;;;;;;;4.17;3.00;;;7.80;99.90;;;;;;5136243;27;20989;-72
2023/11/18 10:58:04;;;;;;;5.03;2.93;;;7.80;99.90;;;;;;5126491;27;21236;-73
2023/11/18 11:00:46;;;;;;;2.80;2.60;;;7.90;99.90;;;;;;5136538;27;20633;-73
2023/11/18 11:03:14;;;;;;;1.50;1.40;;;7.90;99.90;;;;;;5132074;27;21201;-73
2023/11/18 11:05:45;;;;;;;1.17;1.07;;;7.90;99.90;;;;;;5134843;27;20885;-76
2023/11/18 11:08:16;;;;;;;1.40;1.30;;;7.90;99.90;;;;;;5136484;27;20637;-73
2023/11/18 11:10:43;;;;;;;1.17;1.03;;;7.90;99.90;;;;;;5135813;27;20736;-73
2023/11/18 11:13:11;;;;;;;1.00;0.83;;;7.70;99.90;;;;;;5135881;27;21036;-73
2023/11/18 11:15:44;;;;;;;1.00;1.00;;;7.80;99.90;;;;;;5132880;27;21196;-73
2023/11/18 11:18:15;;;;;;;1.23;1.10;;;7.80;99.90;;;;;;5130530;27;20658;-73
2023/11/18 11:20:53;;;;;;;1.87;0.90;;;7.90;99.90;;;;;;5138690;27;20660;-73
2023/11/18 11:23:27;;;;;;;1.83;0.90;;;7.90;99.90;;;;;;5130464;27;20625;-74
2023/11/18 11:26:05;;;;;;;2.90;1.17;;;8.00;99.90;;;;;;5139522;27;20640;-74
2023/11/18 11:28:43;;;;;;;1.00;0.80;;;8.00;99.90;;;;;;5141996;27;20990;-74
2023/11/18 11:31:19;;;;;;;2.40;1.20;;;8.10;99.90;;;;;;5138684;27;20629;-73
2023/11/18 11:33:55;;;;;;;1.27;1.17;;;8.10;99.90;;;;;;5140183;27;20641;-73
2023/11/18 11:36:27;;;;;;;3.33;1.23;;;8.10;99.90;;;;;;5128336;27;20704;-74
2023/11/18 11:38:55;;;;;;;1.27;0.90;;;8.20;99.90;;;;;;5136392;27;20665;-74
2023/11/18 11:41:26;;;;;;;2.30;1.47;;;8.20;99.90;;;;;;5138921;27;21226;-74
2023/11/18 11:43:58;;;;;;;1.30;1.17;;;8.30;99.90;;;;;;5141605;27;20672;-74
2023/11/18 11:46:32;;;;;;;1.17;1.07;;;8.20;99.90;;;;;;5125352;27;21004;-74
2023/11/18 11:49:08;;;;;;;1.93;1.20;;;8.30;99.90;;;;;;5127791;27;20722;-74
2023/11/18 11:51:44;;;;;;;1.60;1.40;;;8.20;99.90;;;;;;5129929;27;20626;-74
2023/11/18 11:54:15;;;;;;;1.23;1.13;;;8.20;99.90;;;;;;5128842;27;20617;-74
2023/11/18 11:56:43;;;;;;;1.93;1.00;;;8.20;99.90;;;;;;5125671;27;20622;-74
2023/11/18 11:59:11;;;;;;;2.10;1.67;;;8.20;99.90;;;;;;5129784;27;21093;-74
2023/11/18 12:01:40;;;;;;;1.10;0.90;;;8.20;99.90;;;;;;5135871;27;20619;-74
2023/11/18 12:04:20;;;;;;;1.40;1.30;;;8.30;99.90;;;;;;5128891;27;20636;-74
2023/11/18 12:06:53;;;;;;;1.17;1.07;;;8.20;99.90;;;;;;5132659;27;20623;-75
2023/11/18 12:09:20;;;;;;;1.13;1.03;;;8.30;99.90;;;;;;5121208;27;20628;-74
2023/11/18 12:11:48;;;;;;;3.50;1.20;;;8.30;99.90;;;;;;5127112;27;20612;-74
2023/11/18 12:14:32;;;;;;;1.03;1.03;;;8.20;99.90;;;;;;5129245;27;20622;-74
2023/11/18 12:17:07;;;;;;;3.50;1.23;;;8.20;99.90;;;;;;5114413;27;21194;-74
2023/11/18 12:22:26;;;;;;;1.53;0.70;;;8.20;99.90;;;;;;5118926;27;20616;-74
2023/11/18 12:25:33;;;;;;;0.90;0.73;;;8.20;99.90;;;;;;5117162;27;20630;-74
2023/11/18 12:28:08;;;;;;;0.63;0.63;;;8.20;99.90;;;;;;5122469;27;20799;-74
2023/11/18 12:31:04;;;;;;;0.83;0.83;;;8.20;99.90;;;;;;5115040;27;20638;-74
2023/11/18 12:34:02;;;;;;;1.73;1.37;;;8.00;99.90;;;;;;5114065;27;20742;-74
2023/11/18 12:36:57;;;;;;;0.60;0.60;;;8.00;99.90;;;;;;5110306;27;20685;-74
2023/11/18 12:40:14;;;;;;;0.80;0.80;;;8.00;99.90;;;;;;5131747;27;21018;-74
2023/11/18 12:43:04;;;;;;;1.40;0.80;;;8.10;99.90;;;;;;5135603;27;20650;-74
2023/11/18 12:46:19;;;;;;;0.93;0.80;;;8.20;99.90;;;;;;5129789;27;20702;-74
2023/11/18 12:48:51;;;;;;;1.03;0.93;;;8.10;99.90;;;;;;5124919;27;20616;-74
2023/11/18 12:51:20;;;;;;;0.67;0.67;;;8.00;99.90;;;;;;5124919;27;20655;-74
2023/11/18 12:53:53;;;;;;;5.00;2.20;;;8.00;99.90;;;;;;5127832;27;20906;-74
2023/11/18 12:56:20;;;;;;;1.47;1.37;;;7.90;99.90;;;;;;5133427;27;20626;-74
2023/11/18 12:58:47;;;;;;;0.70;0.70;;;8.00;99.90;;;;;;5129185;27;20665;-74
2023/11/18 13:01:15;;;;;;;1.60;1.50;;;8.00;99.90;;;;;;5129794;27;20614;-74
2023/11/18 13:03:42;;;;;;;3.80;1.20;;;8.00;99.90;;;;;;5133851;27;20838;-74
2023/11/18 13:06:11;;;;;;;1.73;1.63;;;7.80;99.90;;;;;;5134152;27;20621;-73
2023/11/18 13:08:38;;;;;;;1.60;1.50;;;7.80;99.90;;;;;;5127638;27;20731;-74
2023/11/18 13:11:12;;;;;;;1.50;1.30;;;7.80;99.90;;;;;;5128262;27;20632;-74
2023/11/18 13:13:39;;;;;;;1.47;1.37;;;7.80;99.90;;;;;;5123572;27;20626;-74